Time;durP1;ratioP1;P1;durP2;ratioP2;P2;SDS_P1;SDS_P2;PMS_P1;PMS_P2;Temp;Humidity;BMP_temperature;BMP_pressure;BME280_temperature;BME280_humidity;BME280_pressure;Samples;Min_cycle;Max_cycle;Signal;HPM_P1;HPM_P2
2022/06/23 00:00:44;;;;;;;;;;;;;;;17.32;67.66;100697.25;5082055;28;19924;-76
2022/06/23 00:03:16;;;;;;;;;;;;;;;17.33;67.09;100696.31;5069287;28;19920;-77
2022/06/23 00:05:42;;;;;;;;;;;;;;;17.32;66.27;100679.69;5077843;28;20020;-79
2022/06/23 00:08:13;;;;;;;;;;;;;;;17.40;66.42;100676.69;5075126;28;20047;-79
2022/06/23 00:10:40;;;;;;;;;;;;;;;17.39;67.20;100688.97;5067339;28;19959;-79
2022/06/23 00:13:20;;;;;;;;;;;;;;;17.37;66.70;100695.25;5065965;28;19920;-79
2022/06/23 00:15:45;;;;;;;;;;;;;;;17.43;66.73;100694.94;5078941;28;19916;-79
2022/06/23 00:18:37;;;;;;;;;;;;;;;17.45;66.84;100696.56;5065806;28;19939;-79
2022/06/23 00:21:05;;;;;;;;;;;;;;;17.46;66.97;100690.38;5064548;28;20337;-79
2022/06/23 00:23:33;;;;;;;;;;;;;;;17.46;66.24;100690.38;5067948;28;20409;-79
2022/06/23 00:26:00;;;;;;;;;;;;;;;17.47;65.96;100683.34;5078779;28;20148;-79
2022/06/23 00:28:28;;;;;;;;;;;;;;;17.47;65.88;100697.31;5073992;28;19959;-79
2022/06/23 00:30:59;;;;;;;;;;;;;;;17.51;66.00;100692.75;5085137;28;19923;-79
2022/06/23 00:33:27;;;;;;;;;;;;;;;17.49;65.99;100681.50;5081880;28;19924;-79
2022/06/23 00:35:53;;;;;;;;;;;;;;;17.47;64.80;100678.09;5074009;28;19921;-78
2022/06/23 00:38:20;;;;;;;;;;;;;;;17.46;64.68;100673.75;5064596;28;20307;-78
2022/06/23 00:40:46;;;;;;;;;;;;;;;17.44;66.53;100679.09;5067321;28;19928;-78
2022/06/23 00:43:12;;;;;;;;;;;;;;;17.45;66.30;100675.53;5073523;28;19924;-77
2022/06/23 00:45:40;;;;;;;;;;;;;;;17.43;66.40;100679.19;5067072;28;19999;-78
2022/06/23 00:48:25;;;;;;;;;;;;;;;17.42;65.71;100677.47;5069421;28;19978;-78
2022/06/23 00:50:58;;;;;;;;;;;;;;;17.41;65.25;100676.59;5072348;28;19924;-78
2022/06/23 00:53:30;;;;;;;;;;;;;;;17.39;65.43;100675.84;5066854;28;19944;-78
2022/06/23 00:56:15;;;;;;;;;;;;;;;17.35;65.76;100683.97;5078701;28;19920;-78
2022/06/23 00:58:47;;;;;;;;;;;;;;;17.38;65.32;100678.56;5075832;28;19920;-79
2022/06/23 01:01:35;;;;;;;;;;;;;;;17.38;64.77;100674.13;5064021;28;19982;-79
2022/06/23 01:04:07;;;;;;;;;;;;;;;17.41;63.72;100673.16;5072482;28;19924;-79
2022/06/23 01:06:39;;;;;;;;;;;;;;;17.43;62.64;100663.41;5070488;28;19928;-79
2022/06/23 01:09:13;;;;;;;;;;;;;;;17.45;63.14;100664.19;5062878;28;20012;-79
2022/06/23 01:12:01;;;;;;;;;;;;;;;17.40;63.51;100661.81;5070164;28;20419;-78
2022/06/23 01:14:26;;;;;;;;;;;;;;;17.41;63.65;100660.03;5058289;28;19916;-78
2022/06/23 01:16:55;;;;;;;;;;;;;;;17.38;63.71;100655.75;5060630;28;19927;-78
2022/06/23 01:19:39;;;;;;;;;;;;;;;17.34;64.45;100658.63;5062531;28;19916;-79
2022/06/23 01:22:07;;;;;;;;;;;;;;;17.31;64.27;100670.16;5080318;28;19916;-80
2022/06/23 01:24:44;;;;;;;;;;;;;;;17.32;64.87;100673.63;5073305;28;19921;-79
2022/06/23 01:27:12;;;;;;;;;;;;;;;17.30;65.30;100671.06;5073379;28;19920;-79
2022/06/23 01:29:48;;;;;;;;;;;;;;;17.27;65.41;100670.34;5075890;28;19912;-79
2022/06/23 01:32:17;;;;;;;;;;;;;;;17.28;65.75;100675.53;5070990;28;19932;-77
2022/06/23 01:34:46;;;;;;;;;;;;;;;17.21;65.51;100682.00;5064532;28;20303;-76
2022/06/23 01:37:18;;;;;;;;;;;;;;;17.25;65.28;100690.59;5059815;28;19929;-76
2022/06/23 01:39:43;;;;;;;;;;;;;;;17.20;65.54;100689.97;5079816;28;19956;-77
2022/06/23 01:42:22;;;;;;;;;;;;;;;17.22;64.95;100690.75;5067682;28;20025;-77
2022/06/23 01:45:20;;;;;;;;;;;;;;;17.21;64.87;100691.66;5068800;28;20495;-76
2022/06/23 01:47:57;;;;;;;;;;;;;;;17.22;64.60;100677.63;5041571;28;19920;-77
2022/06/23 01:50:23;;;;;;;;;;;;;;;17.23;64.33;100685.44;5071287;28;19912;-76
2022/06/23 01:53:02;;;;;;;;;;;;;;;17.27;64.08;100686.09;5065456;28;19928;-76
2022/06/23 01:55:29;;;;;;;;;;;;;;;17.24;64.85;100687.13;5072898;28;19917;-77
2022/06/23 01:57:58;;;;;;;;;;;;;;;17.20;65.96;100685.59;5069123;28;20383;-77
2022/06/23 02:00:25;;;;;;;;;;;;;;;17.17;65.59;100691.00;5067898;28;19998;-76
2022/06/23 02:02:58;;;;;;;;;;;;;;;17.12;66.07;100687.72;5071315;28;20371;-77
2022/06/23 02:05:23;;;;;;;;;;;;;;;17.15;65.54;100686.72;5069582;28;19978;-76
2022/06/23 02:07:55;;;;;;;;;;;;;;;17.16;64.70;100691.06;5081976;28;19952;-77
2022/06/23 02:10:20;;;;;;;;;;;;;;;17.18;65.12;100691.81;5063118;28;20463;-77
2022/06/23 02:13:04;;;;;;;;;;;;;;;17.17;66.25;100696.25;5070774;28;20066;-76
2022/06/23 02:15:29;;;;;;;;;;;;;;;17.20;66.07;100696.09;5060850;28;19924;-77
2022/06/23 02:18:21;;;;;;;;;;;;;;;17.15;66.57;100686.72;5076829;28;19940;-77
2022/06/23 02:20:50;;;;;;;;;;;;;;;17.18;66.18;100692.66;5070454;28;20028;-77
2022/06/23 02:23:23;;;;;;;;;;;;;;;17.18;65.84;100694.44;5071463;28;19985;-79
2022/06/23 02:26:11;;;;;;;;;;;;;;;17.19;65.70;100690.91;5086264;28;20019;-79
2022/06/23 02:28:45;;;;;;;;;;;;;;;17.15;66.29;100692.81;5077175;28;19916;-77
2022/06/23 02:31:42;;;;;;;;;;;;;;;17.14;66.35;100685.88;5074153;28;19990;-77
2022/06/23 02:34:14;;;;;;;;;;;;;;;17.15;66.47;100691.97;5044376;28;20295;-76
2022/06/23 02:36:52;;;;;;;;;;;;;;;17.14;65.55;100696.38;5067865;28;19916;-77
2022/06/23 02:39:20;;;;;;;;;;;;;;;17.10;66.85;100700.06;5070036;28;20057;-77
2022/06/23 02:41:55;;;;;;;;;;;;;;;17.12;67.03;100700.00;5067444;28;20311;-77
2022/06/23 02:44:36;;;;;;;;;;;;;;;17.12;67.06;100703.47;5073316;28;19962;-77
2022/06/23 02:47:17;;;;;;;;;;;;;;;17.08;68.10;100713.25;5074167;28;19924;-76
2022/06/23 02:50:06;;;;;;;;;;;;;;;17.09;67.16;100714.13;5071815;28;19955;-76
2022/06/23 02:52:46;;;;;;;;;;;;;;;17.10;66.31;100705.31;5065925;28;19920;-76
2022/06/23 02:55:18;;;;;;;;;;;;;;;17.12;66.42;100695.59;5069943;28;19985;-76
2022/06/23 02:57:51;;;;;;;;;;;;;;;17.14;66.19;100703.41;5072079;28;20016;-76
2022/06/23 03:00:24;;;;;;;;;;;;;;;17.13;66.14;100697.31;5065492;28;20014;-77
2022/06/23 03:03:07;;;;;;;;;;;;;;;17.13;66.93;100706.94;5074699;28;19916;-76
2022/06/23 03:05:38;;;;;;;;;;;;;;;17.12;66.51;100715.72;5077952;28;19925;-77
2022/06/23 03:08:03;;;;;;;;;;;;;;;17.10;67.13;100721.06;5072079;28;19943;-76
2022/06/23 03:10:47;;;;;;;;;;;;;;;17.10;66.94;100715.81;5069795;28;20386;-77
2022/06/23 03:13:31;;;;;;;;;;;;;;;17.08;65.96;100721.13;5085460;28;19917;-79
2022/06/23 03:16:06;;;;;;;;;;;;;;;17.11;65.86;100716.69;5075232;28;19924;-78
2022/06/23 03:18:31;;;;;;;;;;;;;;;17.06;66.38;100723.00;5072093;28;19931;-78
2022/06/23 03:21:02;;;;;;;;;;;;;;;17.03;67.06;100722.28;5080227;28;20322;-80
2022/06/23 03:23:57;;;;;;;;;;;;;;;17.03;66.30;100714.41;5071510;28;19913;-79
2022/06/23 03:26:25;;;;;;;;;;;;;;;17.02;66.99;100712.72;5077690;28;20023;-79
2022/06/23 03:29:04;;;;;;;;;;;;;;;16.99;66.76;100715.50;5068799;28;19921;-79
2022/06/23 03:31:35;;;;;;;;;;;;;;;16.99;66.53;100731.25;5078579;28;19925;-79
2022/06/23 03:34:00;;;;;;;;;;;;;;;17.00;67.12;100731.16;5061431;28;19951;-79
2022/06/23 03:36:28;;;;;;;;;;;;;;;17.01;66.05;100735.50;5065833;28;20375;-79
2022/06/23 03:42:04;;;;;;;;;;;;;;;17.06;65.47;100720.38;5071788;28;19935;-79
2022/06/23 03:44:33;;;;;;;;;;;;;;;17.10;65.04;100718.44;5072943;28;19916;-79
2022/06/23 03:46:58;;;;;;;;;;;;;;;17.11;64.32;100720.16;5076624;28;20380;-79
2022/06/23 03:49:42;;;;;;;;;;;;;;;17.14;63.78;100719.16;5073769;28;19927;-79
2022/06/23 03:52:18;;;;;;;;;;;;;;;17.10;64.23;100713.19;5070752;28;19978;-79
2022/06/23 03:54:46;;;;;;;;;;;;;;;17.13;63.71;100712.19;5075192;28;20569;-80
2022/06/23 03:57:32;;;;;;;;;;;;;;;17.12;64.17;100718.34;5070631;28;19920;-79
2022/06/23 04:00:04;;;;;;;;;;;;;;;17.08;63.92;100702.75;5070002;28;19916;-77
2022/06/23 04:02:34;;;;;;;;;;;;;;;17.10;63.59;100701.84;5081642;28;19915;-79
2022/06/23 04:05:02;;;;;;;;;;;;;;;17.08;63.42;100715.06;5078949;28;19984;-79
2022/06/23 04:07:27;;;;;;;;;;;;;;;17.09;63.41;100724.63;5072143;28;19920;-79
2022/06/23 04:09:53;;;;;;;;;;;;;;;17.12;62.80;100724.47;5075373;28;20405;-79
2022/06/23 04:12:18;;;;;;;;;;;;;;;17.09;62.82;100719.38;5072815;28;19971;-79
2022/06/23 04:14:43;;;;;;;;;;;;;;;17.12;62.93;100715.72;5069066;28;20379;-79
2022/06/23 04:17:09;;;;;;;;;;;;;;;17.11;62.38;100717.53;5076807;28;19927;-79
2022/06/23 04:19:35;;;;;;;;;;;;;;;17.14;62.36;100724.41;5058346;28;19920;-79
2022/06/23 04:22:06;;;;;;;;;;;;;;;17.14;62.55;100714.75;5078319;28;19919;-79
2022/06/23 04:24:32;;;;;;;;;;;;;;;17.13;63.44;100726.19;5082980;28;20019;-79
2022/06/23 04:27:05;;;;;;;;;;;;;;;17.14;63.14;100721.78;5080638;28;20027;-78
2022/06/23 04:29:36;;;;;;;;;;;;;;;17.14;63.31;100719.16;5066161;28;19912;-78
2022/06/23 04:32:21;;;;;;;;;;;;;;;17.18;63.16;100718.06;5078239;28;19924;-78
2022/06/23 04:34:53;;;;;;;;;;;;;;;17.18;62.92;100731.19;5074758;28;19966;-78
2022/06/23 04:37:28;;;;;;;;;;;;;;;17.20;62.32;100726.72;5071743;28;19920;-78
2022/06/23 04:40:02;;;;;;;;;;;;;;;17.21;63.21;100725.78;5066805;28;20003;-77
2022/06/23 04:42:27;;;;;;;;;;;;;;;17.20;63.54;100729.34;5067883;28;19920;-78
2022/06/23 04:44:55;;;;;;;;;;;;;;;17.20;63.17;100737.22;5071379;28;19925;-78
2022/06/23 04:47:23;;;;;;;;;;;;;;;17.20;63.86;100734.59;5068008;28;19919;-78
2022/06/23 04:49:50;;;;;;;;;;;;;;;17.21;62.80;100733.66;5076692;28;19951;-78
2022/06/23 04:52:18;;;;;;;;;;;;;;;17.25;62.97;100741.34;5068374;28;19967;-78
2022/06/23 04:54:43;;;;;;;;;;;;;;;17.27;62.19;100738.63;5075144;28;19959;-78
2022/06/23 04:57:15;;;;;;;;;;;;;;;17.27;62.08;100746.50;5061999;28;19948;-78
2022/06/23 04:59:45;;;;;;;;;;;;;;;17.29;62.09;100744.66;5067555;28;19927;-78
2022/06/23 05:02:16;;;;;;;;;;;;;;;17.29;61.76;100744.66;5068602;28;19924;-78
2022/06/23 05:04:43;;;;;;;;;;;;;;;17.33;61.83;100746.19;5069629;28;19982;-78
2022/06/23 05:07:38;;;;;;;;;;;;;;;17.29;61.19;100740.25;5065827;28;19916;-78
2022/06/23 05:10:06;;;;;;;;;;;;;;;17.34;62.76;100746.13;5008541;28;19917;-78
2022/06/23 05:12:36;;;;;;;;;;;;;;;17.37;63.07;100756.47;5068462;28;19978;-78
2022/06/23 05:15:11;;;;;;;;;;;;;;;17.35;61.97;100752.25;5061835;28;19961;-77
2022/06/23 05:17:41;;;;;;;;;;;;;;;17.39;62.15;100753.78;5080086;28;19916;-76
2022/06/23 05:20:07;;;;;;;;;;;;;;;17.42;62.92;100757.09;5075902;28;19923;-76
2022/06/23 05:22:32;;;;;;;;;;;;;;;17.43;62.94;100750.94;5083143;28;20371;-76
2022/06/23 05:24:59;;;;;;;;;;;;;;;17.44;62.67;100755.25;5069549;28;19974;-77
2022/06/23 05:27:32;;;;;;;;;;;;;;;17.45;62.49;100759.56;5071325;28;19926;-77
2022/06/23 05:29:58;;;;;;;;;;;;;;;17.46;63.19;100760.44;5080038;28;19924;-77
2022/06/23 05:32:39;;;;;;;;;;;;;;;17.48;63.03;100748.91;5069544;28;19920;-76
2022/06/23 05:35:22;;;;;;;;;;;;;;;17.50;63.09;100754.13;5065148;28;19948;-77
2022/06/23 05:37:55;;;;;;;;;;;;;;;17.52;63.01;100758.34;5070598;28;19920;-76
2022/06/23 05:40:39;;;;;;;;;;;;;;;17.53;63.61;100769.72;5078721;28;19927;-76
2022/06/23 05:43:05;;;;;;;;;;;;;;;17.53;63.67;100767.09;5067826;28;19921;-76
2022/06/23 05:45:38;;;;;;;;;;;;;;;17.56;63.61;100766.94;5062599;28;20355;-79
2022/06/23 05:48:05;;;;;;;;;;;;;;;17.57;63.92;100764.22;5061953;28;20553;-79
2022/06/23 05:50:40;;;;;;;;;;;;;;;17.58;64.03;100762.44;5075818;28;19912;-79
2022/06/23 05:53:10;;;;;;;;;;;;;;;17.60;64.11;100758.84;5075266;28;19921;-78
2022/06/23 05:55:42;;;;;;;;;;;;;;;17.62;64.86;100760.56;5077057;28;20405;-75
2022/06/23 05:58:14;;;;;;;;;;;;;;;17.66;65.18;100765.56;5066443;28;19931;-78
2022/06/23 06:00:59;;;;;;;;;;;;;;;17.68;65.62;100762.88;5059494;28;19924;-79
2022/06/23 06:03:27;;;;;;;;;;;;;;;17.71;65.45;100752.22;5067438;28;19943;-77
2022/06/23 06:05:57;;;;;;;;;;;;;;;17.72;65.51;100760.00;5083388;28;19931;-77
2022/06/23 06:08:28;;;;;;;;;;;;;;;17.75;66.15;100759.00;5073724;28;20295;-77
2022/06/23 06:10:54;;;;;;;;;;;;;;;17.77;65.99;100762.41;5070390;28;19928;-77
2022/06/23 06:13:22;;;;;;;;;;;;;;;17.74;65.96;100763.41;5064178;28;20579;-77
2022/06/23 06:15:50;;;;;;;;;;;;;;;17.79;67.07;100765.81;5075113;28;20371;-77
2022/06/23 06:18:20;;;;;;;;;;;;;;;17.78;66.60;100762.31;5071535;28;19921;-77
2022/06/23 06:20:45;;;;;;;;;;;;;;;17.77;67.43;100765.03;5065826;28;19916;-76
2022/06/23 06:23:10;;;;;;;;;;;;;;;17.79;68.36;100764.03;5074632;28;20004;-77
2022/06/23 06:25:39;;;;;;;;;;;;;;;17.83;68.12;100762.09;5081367;28;19944;-77
2022/06/23 06:28:17;;;;;;;;;;;;;;;17.79;68.36;100753.53;5065750;28;19970;-77
2022/06/23 06:30:54;;;;;;;;;;;;;;;17.82;67.72;100755.16;5066045;28;19920;-78
2022/06/23 06:33:31;;;;;;;;;;;;;;;17.83;68.13;100747.16;5053714;28;19963;-78
2022/06/23 06:35:57;;;;;;;;;;;;;;;17.91;68.84;100749.41;5071111;28;20426;-78
2022/06/23 06:38:23;;;;;;;;;;;;;;;17.91;68.92;100741.53;5076751;28;19958;-78
2022/06/23 06:40:50;;;;;;;;;;;;;;;17.90;67.67;100738.06;5076872;28;20383;-80
2022/06/23 06:43:18;;;;;;;;;;;;;;;17.96;68.43;100742.13;5067751;28;19932;-80
2022/06/23 06:45:43;;;;;;;;;;;;;;;17.85;66.58;100747.09;5064902;28;19951;-80
2022/06/23 06:48:12;;;;;;;;;;;;;;;17.90;68.37;100740.69;5062937;28;19956;-80
2022/06/23 06:50:42;;;;;;;;;;;;;;;18.00;68.56;100741.06;5074353;28;19966;-80
2022/06/23 06:53:14;;;;;;;;;;;;;;;18.06;67.90;100744.22;5069674;28;19951;-80
2022/06/23 06:55:42;;;;;;;;;;;;;;;17.97;67.83;100747.34;5069539;28;20294;-80
2022/06/23 06:58:13;;;;;;;;;;;;;;;17.97;66.87;100747.34;5054435;28;19916;-80
2022/06/23 07:00:48;;;;;;;;;;;;;;;18.13;68.61;100750.84;5058207;28;19973;-80
2022/06/23 07:03:15;;;;;;;;;;;;;;;18.05;69.14;100753.03;5075840;28;19916;-80
2022/06/23 07:05:46;;;;;;;;;;;;;;;18.04;68.74;100753.94;5069070;28;20611;-80
2022/06/23 07:08:14;;;;;;;;;;;;;;;18.02;69.13;100747.94;5083151;28;20015;-80
2022/06/23 07:10:46;;;;;;;;;;;;;;;17.96;69.08;100755.28;5081569;28;20371;-80
2022/06/23 07:13:34;;;;;;;;;;;;;;;18.14;69.56;100756.94;5072550;28;19931;-80
2022/06/23 07:16:03;;;;;;;;;;;;;;;18.15;69.39;100748.97;5057999;28;20023;-80
2022/06/23 07:18:46;;;;;;;;;;;;;;;18.06;68.76;100751.25;5076065;28;19995;-80
2022/06/23 07:21:17;;;;;;;;;;;;;;;17.96;66.58;100753.50;5078278;28;19920;-80
2022/06/23 07:23:47;;;;;;;;;;;;;;;18.03;69.60;100751.41;5070298;28;19913;-80
2022/06/23 07:26:28;;;;;;;;;;;;;;;18.28;69.90;100751.81;5062710;28;19925;-80
2022/06/23 07:28:58;;;;;;;;;;;;;;;18.09;67.97;100746.66;5073359;28;19937;-80
2022/06/23 07:31:28;;;;;;;;;;;;;;;18.03;68.59;100744.38;5070380;28;19959;-80
2022/06/23 07:33:57;;;;;;;;;;;;;;;18.06;69.39;100748.63;5061603;28;19924;-80
2022/06/23 07:36:29;;;;;;;;;;;;;;;18.05;68.92;100741.66;5066855;28;19920;-80
2022/06/23 07:38:58;;;;;;;;;;;;;;;18.28;69.08;100738.66;5061627;28;19913;-80
2022/06/23 07:41:42;;;;;;;;;;;;;;;18.22;68.96;100736.34;5066217;28;19912;-80
2022/06/23 07:44:20;;;;;;;;;;;;;;;18.12;68.01;100743.88;5070042;28;20578;-80
2022/06/23 07:46:46;;;;;;;;;;;;;;;18.39;69.64;100740.75;5057417;28;20654;-79
2022/06/23 07:49:11;;;;;;;;;;;;;;;18.03;64.13;100736.50;5067241;28;19931;-80
2022/06/23 07:51:37;;;;;;;;;;;;;;;18.24;69.40;100738.91;5061531;28;19995;-79
2022/06/23 07:54:04;;;;;;;;;;;;;;;18.17;69.48;100743.66;5068875;28;19928;-79
2022/06/23 07:56:31;;;;;;;;;;;;;;;18.37;68.05;100746.06;5072722;28;20009;-78
2022/06/23 07:59:02;;;;;;;;;;;;;;;18.33;69.84;100741.91;5068388;28;19970;-78
2022/06/23 08:01:30;;;;;;;;;;;;;;;18.15;67.32;100741.09;5070709;28;20028;-78
2022/06/23 08:04:05;;;;;;;;;;;;;;;18.33;68.38;100735.81;5067148;28;19920;-78
2022/06/23 08:06:33;;;;;;;;;;;;;;;18.25;68.76;100736.19;5066198;28;19929;-78
2022/06/23 08:09:01;;;;;;;;;;;;;;;18.24;66.85;100728.41;5070673;28;19919;-78
2022/06/23 08:14:38;;;;;;;;;;;;;;;18.31;68.06;100730.63;5064745;28;20193;-79
2022/06/23 08:17:06;;;;;;;;;;;;;;;18.02;63.86;100726.03;5065808;28;19974;-80
2022/06/23 08:19:44;;;;;;;;;;;;;;;18.26;66.78;100729.16;5050978;28;19924;-80
2022/06/23 08:22:19;;;;;;;;;;;;;;;18.16;63.83;100727.03;5070521;28;19970;-80
2022/06/23 08:24:48;;;;;;;;;;;;;;;18.28;65.91;100717.63;5071676;28;19927;-80
2022/06/23 08:27:16;;;;;;;;;;;;;;;18.24;63.23;100718.75;5049365;28;19928;-80
2022/06/23 08:29:48;;;;;;;;;;;;;;;18.09;63.65;100716.91;5070752;28;19974;-80
2022/06/23 08:32:14;;;;;;;;;;;;;;;18.22;64.77;100710.06;5070625;28;19940;-80
2022/06/23 08:34:45;;;;;;;;;;;;;;;18.49;65.75;100710.38;5059056;28;20379;-80
2022/06/23 08:37:15;;;;;;;;;;;;;;;18.48;65.80;100712.16;5066467;28;19997;-80
2022/06/23 08:39:57;;;;;;;;;;;;;;;18.47;66.63;100705.22;5062630;28;19921;-80
2022/06/23 08:42:23;;;;;;;;;;;;;;;18.35;62.78;100708.50;5063818;28;19956;-80
2022/06/23 08:44:52;;;;;;;;;;;;;;;18.35;66.93;100711.13;5064257;28;20387;-80
2022/06/23 08:47:17;;;;;;;;;;;;;;;18.50;66.46;100707.69;5063692;28;20641;-79
2022/06/23 08:49:48;;;;;;;;;;;;;;;18.16;63.06;100710.38;5064142;28;19956;-80
2022/06/23 08:52:22;;;;;;;;;;;;;;;18.11;65.48;100707.16;5066566;28;19982;-80
2022/06/23 08:54:56;;;;;;;;;;;;;;;18.64;64.63;100706.91;5071322;28;20295;-80
2022/06/23 08:57:22;;;;;;;;;;;;;;;18.52;61.20;100704.97;5075585;28;20007;-80
2022/06/23 09:00:01;;;;;;;;;;;;;;;18.57;62.90;100710.84;5070780;28;20369;-79
2022/06/23 09:02:35;;;;;;;;;;;;;;;18.63;62.62;100705.22;5066106;28;19915;-79
2022/06/23 09:05:12;;;;;;;;;;;;;;;18.64;61.17;100704.28;5065984;28;19964;-79
2022/06/23 09:07:40;;;;;;;;;;;;;;;18.60;61.02;100706.22;5064714;28;19963;-79
2022/06/23 09:10:27;;;;;;;;;;;;;;;19.06;60.92;100712.41;5063988;28;20740;-78
2022/06/23 09:12:55;;;;;;;;;;;;;;;18.76;59.94;100710.66;5063607;28;20032;-78
2022/06/23 09:15:39;;;;;;;;;;;;;;;18.54;63.00;100708.38;5068407;28;20016;-78
2022/06/23 09:18:23;;;;;;;;;;;;;;;18.88;61.62;100700.28;5064746;28;19920;-77
2022/06/23 09:20:59;;;;;;;;;;;;;;;18.67;61.54;100706.75;5064414;28;20387;-77
2022/06/23 09:23:46;;;;;;;;;;;;;;;18.66;61.89;100703.25;5064771;28;20005;-77
2022/06/23 09:26:14;;;;;;;;;;;;;;;18.18;61.41;100698.03;5066270;28;19935;-77
2022/06/23 09:28:45;;;;;;;;;;;;;;;18.12;61.54;100701.00;5068166;28;19924;-77
2022/06/23 09:31:19;;;;;;;;;;;;;;;18.14;61.86;100693.84;5068124;28;19928;-77
2022/06/23 09:34:03;;;;;;;;;;;;;;;18.27;61.09;100687.03;5070371;28;19923;-77
2022/06/23 09:36:41;;;;;;;;;;;;;;;18.74;62.29;100679.19;5063124;28;20366;-77
2022/06/23 09:39:21;;;;;;;;;;;;;;;18.58;60.90;100683.56;5066250;28;19924;-77
2022/06/23 09:42:09;;;;;;;;;;;;;;;18.52;60.39;100676.88;5065664;28;19924;-77
2022/06/23 09:44:55;;;;;;;;;;;;;;;18.58;60.38;100678.31;5065694;28;19924;-77
2022/06/23 09:47:26;;;;;;;;;;;;;;;18.44;63.84;100679.06;5063400;28;20288;-77
2022/06/23 09:50:16;;;;;;;;;;;;;;;18.77;61.82;100678.16;5073127;28;19929;-77
2022/06/23 09:52:54;;;;;;;;;;;;;;;18.31;61.12;100675.38;5065360;28;19999;-77
2022/06/23 09:55:19;;;;;;;;;;;;;;;18.20;61.50;100667.25;5066326;28;19921;-77
2022/06/23 09:58:03;;;;;;;;;;;;;;;18.24;63.32;100671.41;5062233;28;19990;-77
2022/06/23 10:00:47;;;;;;;;;;;;;;;18.63;60.57;100671.00;5059521;28;19927;-77
2022/06/23 10:03:31;;;;;;;;;;;;;;;18.53;62.35;100672.47;5066514;28;19928;-77
2022/06/23 10:06:09;;;;;;;;;;;;;;;18.97;63.41;100676.09;5057782;28;19935;-77
2022/06/23 10:08:34;;;;;;;;;;;;;;;18.86;60.99;100667.09;5065285;28;19923;-77
2022/06/23 10:11:20;;;;;;;;;;;;;;;18.74;62.87;100665.16;5066437;28;20543;-77
2022/06/23 10:14:08;;;;;;;;;;;;;;;18.79;61.19;100663.13;5060397;28;19994;-77
2022/06/23 10:16:39;;;;;;;;;;;;;;;18.52;62.82;100665.50;5051625;28;20017;-79
2022/06/23 10:19:23;;;;;;;;;;;;;;;18.24;61.57;100667.94;5065674;28;19942;-80
2022/06/23 10:21:51;;;;;;;;;;;;;;;18.66;60.52;100662.94;5063766;28;20526;-80
2022/06/23 10:24:26;;;;;;;;;;;;;;;18.46;63.75;100665.84;5066643;28;19921;-79
2022/06/23 10:27:00;;;;;;;;;;;;;;;18.35;60.88;100657.66;5063284;28;19925;-80
2022/06/23 10:29:35;;;;;;;;;;;;;;;18.80;61.38;100663.03;5062695;28;19924;-80
2022/06/23 10:32:12;;;;;;;;;;;;;;;18.66;61.11;100652.41;5063457;28;19921;-80
2022/06/23 10:34:41;;;;;;;;;;;;;;;18.33;61.00;100655.13;5067824;28;19936;-80
2022/06/23 10:37:09;;;;;;;;;;;;;;;18.43;60.52;100658.09;5066652;28;19920;-80
2022/06/23 10:39:53;;;;;;;;;;;;;;;18.27;61.26;100655.47;5063431;28;20020;-80
2022/06/23 10:42:27;;;;;;;;;;;;;;;18.55;60.37;100646.91;5062268;28;19983;-80
2022/06/23 10:44:57;;;;;;;;;;;;;;;18.38;61.20;100657.50;5059591;28;19925;-79
2022/06/23 10:47:35;;;;;;;;;;;;;;;18.26;61.27;100651.13;5066854;28;19995;-78
2022/06/23 10:50:00;;;;;;;;;;;;;;;18.27;61.26;100641.47;5069099;28;20438;-78
2022/06/23 10:52:40;;;;;;;;;;;;;;;18.30;61.31;100641.31;5067556;28;20047;-78
2022/06/23 10:55:11;;;;;;;;;;;;;;;18.42;62.87;100638.00;5062866;28;19927;-79
2022/06/23 10:57:46;;;;;;;;;;;;;;;18.47;61.54;100634.22;5068368;28;19921;-78
2022/06/23 11:00:19;;;;;;;;;;;;;;;18.47;62.12;100643.88;5070187;28;19920;-78
2022/06/23 11:03:03;;;;;;;;;;;;;;;18.33;60.98;100631.47;5067904;28;19935;-78
2022/06/23 11:05:40;;;;;;;;;;;;;;;18.78;63.00;100635.13;5074643;28;19974;-78
2022/06/23 11:08:24;;;;;;;;;;;;;;;18.86;62.43;100628.47;5090986;28;19920;-79
2022/06/23 11:11:08;;;;;;;;;;;;;;;18.53;61.61;100627.75;5067662;28;20023;-79
2022/06/23 11:13:37;;;;;;;;;;;;;;;18.61;60.40;100629.00;5083316;28;19916;-80
2022/06/23 11:16:32;;;;;;;;;;;;;;;18.59;62.81;100627.41;5076156;28;19920;-80
2022/06/23 11:18:58;;;;;;;;;;;;;;;18.44;60.76;100622.97;5013662;28;20029;-79
2022/06/23 11:21:32;;;;;;;;;;;;;;;18.45;60.87;100619.41;5068841;28;20349;-79
2022/06/23 11:24:15;;;;;;;;;;;;;;;18.31;61.08;100624.56;5067233;28;19920;-79
2022/06/23 11:26:44;;;;;;;;;;;;;;;18.28;61.30;100619.47;5067630;28;20032;-80
2022/06/23 11:29:15;;;;;;;;;;;;;;;18.59;63.00;100611.63;5069483;28;19920;-80
2022/06/23 11:31:59;;;;;;;;;;;;;;;18.29;61.16;100598.38;5066918;28;20075;-78
2022/06/23 11:34:39;;;;;;;;;;;;;;;18.37;61.16;100603.19;5071152;28;20097;-78
2022/06/23 11:37:16;;;;;;;;;;;;;;;18.38;60.66;100600.50;5063098;28;19928;-78
2022/06/23 11:39:51;;;;;;;;;;;;;;;18.28;61.28;100599.28;5059519;28;20011;-78
2022/06/23 11:42:16;;;;;;;;;;;;;;;18.64;63.19;100599.91;5060917;28;20007;-78
2022/06/23 11:44:41;;;;;;;;;;;;;;;18.48;63.31;100596.44;5060170;28;20347;-78
2022/06/23 11:47:33;;;;;;;;;;;;;;;18.35;60.97;100590.16;5060996;28;20360;-78
2022/06/23 11:50:07;;;;;;;;;;;;;;;18.24;61.13;100589.03;5053744;28;19920;-79
2022/06/23 11:52:51;;;;;;;;;;;;;;;18.25;61.33;100595.97;5059596;28;19920;-77
2022/06/23 11:55:24;;;;;;;;;;;;;;;18.37;61.15;100588.25;5065045;28;19948;-78
2022/06/23 11:57:52;;;;;;;;;;;;;;;18.30;61.28;100584.31;5062668;28;19924;-78
2022/06/23 12:00:19;;;;;;;;;;;;;;;18.76;59.79;100572.03;5059279;28;19923;-78
2022/06/23 12:02:56;;;;;;;;;;;;;;;18.35;60.99;100578.78;5065585;28;19928;-78
2022/06/23 12:05:22;;;;;;;;;;;;;;;18.73;63.32;100574.00;5073018;28;20382;-78
2022/06/23 12:08:05;;;;;;;;;;;;;;;18.50;61.25;100562.16;5069183;28;19921;-79
2022/06/23 12:10:32;;;;;;;;;;;;;;;18.32;61.11;100565.78;5068874;28;19924;-79
2022/06/23 12:12:58;;;;;;;;;;;;;;;18.39;60.90;100570.59;5058182;28;19924;-78
2022/06/23 12:15:26;;;;;;;;;;;;;;;18.34;61.02;100567.41;5065880;28;19916;-78
2022/06/23 12:18:12;;;;;;;;;;;;;;;18.29;61.25;100572.06;5059243;28;20319;-78
2022/06/23 12:20:56;;;;;;;;;;;;;;;18.34;61.13;100564.75;5066843;28;19909;-79
2022/06/23 12:23:27;;;;;;;;;;;;;;;18.34;61.17;100562.13;5066994;28;20414;-79
2022/06/23 12:26:30;;;;;;;;;;;;;;;18.46;63.34;100565.88;5063472;28;19929;-79
2022/06/23 12:28:58;;;;;;;;;;;;;;;18.31;61.01;100558.81;5044510;28;19971;-79
2022/06/23 12:31:38;;;;;;;;;;;;;;;18.37;60.99;100558.47;5038571;28;20371;-79
2022/06/23 12:34:03;;;;;;;;;;;;;;;18.35;61.06;100557.72;5047884;28;19924;-80
2022/06/23 12:36:47;;;;;;;;;;;;;;;18.47;60.79;100554.44;5067963;28;19920;-79
2022/06/23 12:39:34;;;;;;;;;;;;;;;18.43;61.48;100548.47;5062937;28;19970;-79
2022/06/23 12:42:02;;;;;;;;;;;;;;;18.35;60.95;100553.31;5059748;28;19927;-79
2022/06/23 12:44:37;;;;;;;;;;;;;;;18.39;61.00;100540.84;5065639;28;19920;-79
2022/06/23 12:47:22;;;;;;;;;;;;;;;18.38;61.02;100536.53;5059654;28;19925;-79
2022/06/23 12:50:07;;;;;;;;;;;;;;;18.40;61.22;100532.00;5059920;28;19920;-78
2022/06/23 12:52:35;;;;;;;;;;;;;;;18.74;60.64;100525.69;5063041;28;19928;-78
2022/06/23 12:55:09;;;;;;;;;;;;;;;18.92;59.36;100520.22;5061943;28;20383;-78
2022/06/23 12:57:45;;;;;;;;;;;;;;;18.57;60.19;100513.53;5067726;28;19921;-78
2022/06/23 13:00:13;;;;;;;;;;;;;;;18.48;60.54;100517.50;5066163;28;19928;-79
2022/06/23 13:02:49;;;;;;;;;;;;;;;18.36;60.99;100518.19;5070929;28;19912;-79
2022/06/23 13:05:17;;;;;;;;;;;;;;;18.90;59.68;100510.69;5055183;28;19928;-77
2022/06/23 13:07:50;;;;;;;;;;;;;;;18.82;62.97;100513.78;5060115;28;20016;-78
2022/06/23 13:10:31;;;;;;;;;;;;;;;18.53;60.68;100515.50;5066279;28;19928;-78
2022/06/23 13:12:59;;;;;;;;;;;;;;;18.54;61.13;100511.09;5068606;28;19955;-78